Time;durP1;ratioP1;P1;durP2;ratioP2;P2;SDS_P1;SDS_P2;PMS_P1;PMS_P2;Temp;Humidity;BMP_temperature;BMP_pressure;BME280_temperature;BME280_humidity;BME280_pressure;Samples;Min_cycle;Max_cycle;Signal;HPM_P1;HPM_P2
2021/12/04 00:00:01;;;;;;;2.72;1.38;;;10.20;99.90;;;;;;4972609;28;20042;-76
2021/12/04 00:02:27;;;;;;;3.60;1.50;;;10.10;99.90;;;;;;4991841;28;20042;-73
2021/12/04 00:04:55;;;;;;;2.55;1.60;;;10.10;99.90;;;;;;4993821;28;20041;-72
2021/12/04 00:07:22;;;;;;;3.35;1.63;;;10.00;99.90;;;;;;4974451;28;20049;-73
2021/12/04 00:09:50;;;;;;;3.63;1.55;;;10.00;99.90;;;;;;4990495;28;20046;-71
2021/12/04 00:12:18;;;;;;;3.10;1.60;;;10.10;99.90;;;;;;4991575;28;20038;-73
2021/12/04 00:14:45;;;;;;;1.38;1.00;;;10.20;99.90;;;;;;4969110;28;20054;-73
2021/12/04 00:17:12;;;;;;;1.67;1.00;;;10.30;99.90;;;;;;4998945;28;20077;-73
2021/12/04 00:19:40;;;;;;;2.38;1.23;;;10.50;99.90;;;;;;4999144;28;20038;-73
2021/12/04 00:22:06;;;;;;;1.63;1.00;;;10.60;99.90;;;;;;4976995;28;20039;-73
2021/12/04 00:24:32;;;;;;;1.90;1.20;;;10.70;99.90;;;;;;4986435;28;20446;-74
2021/12/04 00:26:59;;;;;;;1.70;1.20;;;10.70;99.90;;;;;;4984628;28;20049;-74
2021/12/04 00:29:27;;;;;;;1.98;1.40;;;10.60;99.90;;;;;;4987673;28;20045;-72
2021/12/04 00:31:58;;;;;;;4.63;1.95;;;10.60;99.90;;;;;;4983771;28;20046;-73
2021/12/04 00:34:26;;;;;;;5.30;2.53;;;10.40;99.90;;;;;;5012794;28;20085;-72
2021/12/04 00:50:23;;;;;;;3.30;1.80;;;10.20;99.90;;;;;;4992893;28;20417;-72
2021/12/04 00:52:49;;;;;;;2.78;1.90;;;10.40;99.90;;;;;;5001766;28;20034;-73
2021/12/04 00:55:15;;;;;;;5.00;1.92;;;10.40;99.90;;;;;;5008956;28;20116;-73
2021/12/04 00:57:41;;;;;;;1.90;1.52;;;10.40;99.90;;;;;;4978244;28;20049;-73
2021/12/04 01:00:07;;;;;;;3.25;2.05;;;10.40;99.90;;;;;;5004446;28;20030;-72
2021/12/04 01:02:33;;;;;;;2.70;1.80;;;10.40;99.90;;;;;;4990486;28;20049;-75
2021/12/04 01:04:59;;;;;;;3.13;1.80;;;10.30;99.90;;;;;;5010408;28;20042;-73
2021/12/04 01:07:27;;;;;;;1.85;1.60;;;10.30;99.90;;;;;;4972234;28;20045;-72
2021/12/04 01:09:53;;;;;;;3.00;1.83;;;10.30;99.90;;;;;;5003480;28;20046;-76
2021/12/04 01:12:19;;;;;;;3.30;1.80;;;10.20;99.90;;;;;;4991899;28;20509;-73
2021/12/04 01:14:45;;;;;;;3.28;1.90;;;10.20;99.90;;;;;;5008908;28;20086;-71
2021/12/04 01:17:13;;;;;;;3.70;1.60;;;10.20;99.90;;;;;;4977771;28;20038;-74
2021/12/04 01:19:39;;;;;;;2.80;1.80;;;10.30;99.90;;;;;;5004199;28;20472;-72
2021/12/04 01:22:06;;;;;;;2.60;1.80;;;10.30;99.90;;;;;;5001231;28;20421;-73
2021/12/04 01:24:33;;;;;;;3.58;1.83;;;10.20;99.90;;;;;;4991215;28;20033;-74
2021/12/04 01:27:00;;;;;;;2.70;1.73;;;10.20;99.90;;;;;;5004805;28;20046;-73
2021/12/04 01:29:26;;;;;;;3.05;1.58;;;10.20;99.90;;;;;;4994428;28;20484;-76
2021/12/04 01:31:54;;;;;;;3.25;1.73;;;10.30;99.90;;;;;;4968768;28;20073;-73
2021/12/04 01:34:20;;;;;;;2.03;1.63;;;10.20;99.90;;;;;;5005882;28;20038;-75
2021/12/04 01:36:46;;;;;;;3.40;1.83;;;10.20;99.90;;;;;;5010775;28;20041;-72
2021/12/04 01:39:14;;;;;;;5.05;2.28;;;10.20;99.90;;;;;;4995626;28;20408;-74
2021/12/04 01:41:41;;;;;;;2.63;1.80;;;10.10;99.90;;;;;;5000836;28;20048;-74
2021/12/04 01:44:08;;;;;;;4.35;2.40;;;10.00;99.90;;;;;;4995287;28;20034;-74
2021/12/04 01:46:35;;;;;;;4.18;2.28;;;10.00;99.90;;;;;;5009734;28;20065;-73
2021/12/04 01:49:03;;;;;;;3.40;2.05;;;9.90;99.90;;;;;;4997118;28;20041;-74
2021/12/04 01:51:30;;;;;;;3.78;1.88;;;9.90;99.90;;;;;;4976061;28;20514;-72
2021/12/04 01:53:56;;;;;;;5.35;2.40;;;10.00;99.90;;;;;;5007672;28;20120;-73
2021/12/04 01:56:23;;;;;;;4.32;2.53;;;9.80;99.90;;;;;;4987945;28;20033;-74
2021/12/04 01:58:53;;;;;;;6.40;2.33;;;9.70;99.90;;;;;;5011722;28;20069;-73
2021/12/04 02:01:19;;;;;;;3.55;1.65;;;9.70;99.90;;;;;;5006997;28;20662;-73
2021/12/04 02:03:46;;;;;;;2.92;1.70;;;10.00;99.90;;;;;;4996161;28;20041;-74
2021/12/04 02:06:13;;;;;;;2.55;1.40;;;10.00;99.90;;;;;;5007615;28;20092;-72
2021/12/04 02:08:39;;;;;;;2.60;1.40;;;10.30;99.90;;;;;;5013832;28;20936;-76
2021/12/04 02:11:04;;;;;;;1.95;1.23;;;10.40;99.90;;;;;;5007808;28;20478;-73
2021/12/04 02:13:30;;;;;;;2.47;1.27;;;10.60;99.90;;;;;;4985457;28;20041;-72
2021/12/04 02:16:01;;;;;;;3.17;1.58;;;10.60;99.90;;;;;;4995013;28;20030;-73
2021/12/04 02:18:28;;;;;;;1.65;1.25;;;10.60;99.90;;;;;;4991924;28;20324;-77
2021/12/04 02:20:54;;;;;;;3.10;1.73;;;10.50;99.90;;;;;;5008641;28;20049;-72
2021/12/04 02:23:20;;;;;;;2.15;1.63;;;10.40;99.90;;;;;;4999698;28;20033;-72
2021/12/04 02:25:49;;;;;;;2.30;1.73;;;10.40;99.90;;;;;;5010721;28;20485;-76
2021/12/04 02:28:16;;;;;;;3.45;2.03;;;10.30;99.90;;;;;;4989544;28;20506;-76
2021/12/04 02:30:44;;;;;;;2.15;1.60;;;10.10;99.90;;;;;;4980855;28;20034;-73
2021/12/04 02:33:12;;;;;;;2.58;1.80;;;10.10;99.90;;;;;;5006285;28;20041;-75
2021/12/04 02:35:48;;;;;;;2.53;1.73;;;10.20;99.90;;;;;;5008344;28;20120;-73
2021/12/04 02:38:15;;;;;;;2.15;1.40;;;10.20;99.90;;;;;;5003192;28;20042;-72
2021/12/04 02:40:43;;;;;;;4.45;1.67;;;10.20;99.90;;;;;;4995940;28;20064;-75
2021/12/04 02:43:10;;;;;;;3.55;1.67;;;10.10;99.90;;;;;;4993581;28;20120;-73
2021/12/04 02:45:37;;;;;;;3.13;1.67;;;10.20;99.90;;;;;;5002567;28;20037;-76
2021/12/04 02:48:03;;;;;;;2.83;1.70;;;10.30;99.90;;;;;;4980346;28;20042;-73
2021/12/04 02:50:29;;;;;;;3.65;1.92;;;10.40;99.90;;;;;;5015633;28;20059;-71
2021/12/04 02:52:55;;;;;;;2.95;1.83;;;10.40;99.90;;;;;;5008609;28;20045;-76
2021/12/04 02:55:24;;;;;;;4.10;2.13;;;10.20;99.90;;;;;;5005919;28;20056;-72
2021/12/04 02:57:51;;;;;;;4.00;2.50;;;10.10;99.90;;;;;;5015412;28;20126;-74
2021/12/04 03:00:21;;;;;;;3.15;1.73;;;10.00;99.90;;;;;;5012451;28;20048;-74
2021/12/04 03:02:49;;;;;;;2.97;1.95;;;10.00;99.90;;;;;;5015304;28;20044;-72
2021/12/04 03:05:27;;;;;;;3.00;1.80;;;9.90;99.90;;;;;;5007197;28;20061;-74
2021/12/04 03:07:58;;;;;;;2.85;1.80;;;10.10;99.90;;;;;;4963724;28;20792;-73
2021/12/04 03:10:25;;;;;;;3.42;2.15;;;10.20;99.90;;;;;;5000402;28;20037;-72
2021/12/04 03:12:52;;;;;;;2.63;1.77;;;10.30;99.90;;;;;;4985550;28;20034;-74
2021/12/04 03:15:21;;;;;;;2.10;1.65;;;10.40;99.90;;;;;;5006168;28;20077;-72
2021/12/04 03:17:47;;;;;;;4.70;1.80;;;10.60;99.90;;;;;;4974638;28;20034;-72
2021/12/04 03:20:13;;;;;;;2.35;1.90;;;10.60;99.90;;;;;;4983814;28;20042;-74
2021/12/04 03:22:41;;;;;;;2.65;1.80;;;10.60;99.90;;;;;;4994488;28;20077;-75
2021/12/04 03:25:09;;;;;;;2.63;1.80;;;10.70;99.90;;;;;;5005335;28;20046;-73
2021/12/04 03:27:38;;;;;;;1.90;1.65;;;10.70;99.90;;;;;;5002584;28;20046;-73
2021/12/04 03:30:13;;;;;;;4.10;1.90;;;10.80;99.90;;;;;;4984199;28;21984;-73
2021/12/04 03:43:14;;;;;;;2.65;1.92;;;10.70;99.90;;;;;;4977477;28;20066;-74
2021/12/04 03:45:43;;;;;;;3.60;2.28;;;10.50;99.90;;;;;;4991788;28;20145;-74
2021/12/04 03:48:27;;;;;;;4.90;2.53;;;10.40;99.90;;;;;;5017470;28;20395;-72
2021/12/04 03:50:54;;;;;;;5.78;2.40;;;10.30;99.90;;;;;;4998065;28;20022;-73
2021/12/04 03:53:20;;;;;;;3.40;2.67;;;10.20;99.90;;;;;;4985540;28;20034;-77
2021/12/04 03:55:49;;;;;;;3.97;2.60;;;10.20;99.90;;;;;;4986966;28;20604;-73
2021/12/04 03:58:19;;;;;;;4.85;2.80;;;10.10;99.90;;;;;;5009403;28;20053;-73
2021/12/04 04:00:48;;;;;;;3.95;2.90;;;9.90;99.90;;;;;;5006954;28;20053;-73
2021/12/04 04:03:15;;;;;;;4.55;3.10;;;9.80;99.90;;;;;;5008682;28;20033;-72
2021/12/04 04:05:42;;;;;;;5.10;3.25;;;9.70;99.90;;;;;;5012551;28;20117;-72
2021/12/04 04:08:11;;;;;;;4.30;3.15;;;9.60;99.90;;;;;;5010431;28;20045;-74
2021/12/04 04:10:37;;;;;;;5.75;3.30;;;9.50;99.90;;;;;;5015501;28;20034;-73
2021/12/04 04:13:03;;;;;;;4.50;2.80;;;9.40;99.90;;;;;;4985101;28;20466;-73
2021/12/04 04:15:30;;;;;;;7.78;3.38;;;9.40;99.90;;;;;;4998369;28;20041;-74
2021/12/04 04:17:57;;;;;;;4.63;3.33;;;9.40;99.90;;;;;;4985545;28;20062;-74
2021/12/04 04:20:23;;;;;;;4.28;3.05;;;9.30;99.90;;;;;;4998211;28;20080;-73
2021/12/04 04:22:50;;;;;;;4.90;3.60;;;9.30;99.90;;;;;;4996614;28;20041;-73
2021/12/04 04:25:17;;;;;;;4.78;3.38;;;9.30;99.90;;;;;;5013790;28;20433;-73
2021/12/04 04:27:44;;;;;;;6.13;3.83;;;9.20;99.90;;;;;;4982585;28;20093;-74
2021/12/04 04:30:17;;;;;;;7.55;3.65;;;9.20;99.90;;;;;;5001883;28;20041;-72
2021/12/04 04:32:46;;;;;;;6.70;4.00;;;9.10;99.90;;;;;;4990035;28;20053;-73
2021/12/04 04:35:16;;;;;;;6.63;3.97;;;9.20;99.90;;;;;;4993508;28;20202;-73
2021/12/04 04:57:31;;;;;;;4.15;3.30;;;9.20;99.90;;;;;;5004379;28;20088;-72
2021/12/04 05:10:39;;;;;;;3.72;3.08;;;9.70;99.90;;;;;;5005713;28;20060;-75
2021/12/04 05:13:01;;;;;;;5.38;3.28;;;9.80;99.90;;;;;;4986655;28;20042;-74
2021/12/04 05:18:36;;;;;;;4.35;3.00;;;10.20;99.90;;;;;;5003225;28;20125;-73
2021/12/04 05:21:04;;;;;;;4.43;2.88;;;10.30;99.90;;;;;;4973840;28;20137;-74
2021/12/04 05:23:38;;;;;;;6.50;3.42;;;10.40;99.90;;;;;;5009495;28;20033;-74
2021/12/04 05:26:06;;;;;;;6.18;3.30;;;10.40;99.90;;;;;;5007260;28;20074;-73
2021/12/04 05:28:33;;;;;;;4.47;2.80;;;10.50;99.90;;;;;;5013488;28;20461;-76
2021/12/04 05:31:01;;;;;;;4.75;2.85;;;10.50;99.90;;;;;;5010499;28;20057;-74
2021/12/04 05:33:28;;;;;;;4.13;2.90;;;10.60;99.90;;;;;;5006510;28;20148;-72
2021/12/04 05:35:55;;;;;;;6.20;2.92;;;10.70;99.90;;;;;;5002533;28;20054;-76
2021/12/04 05:38:22;;;;;;;4.63;2.95;;;10.70;99.90;;;;;;5004624;28;20030;-72
2021/12/04 05:40:48;;;;;;;3.28;2.53;;;10.70;99.90;;;;;;4998547;28;20128;-74
2021/12/04 05:43:14;;;;;;;4.63;2.85;;;10.50;99.90;;;;;;4999858;28;20083;-72
2021/12/04 05:45:47;;;;;;;5.85;3.10;;;10.50;99.90;;;;;;4997722;28;20410;-74
2021/12/04 05:48:19;;;;;;;5.20;3.33;;;10.50;99.90;;;;;;4995007;28;20067;-72
2021/12/04 05:56:19;;;;;;;5.45;3.00;;;10.60;99.90;;;;;;5014456;28;20038;-74
2021/12/04 05:58:39;;;;;;;4.65;3.00;;;10.60;99.90;;;;;;4990068;28;20064;-74
2021/12/04 06:01:07;;;;;;;5.55;3.22;;;10.60;99.90;;;;;;4987320;28;20063;-72
2021/12/04 06:03:34;;;;;;;5.13;2.78;;;10.60;99.90;;;;;;5000818;28;20034;-75
2021/12/04 06:06:01;;;;;;;3.35;2.35;;;10.70;99.90;;;;;;4987327;28;20068;-74
2021/12/04 06:08:29;;;;;;;6.15;3.03;;;10.60;99.90;;;;;;4999147;28;20030;-75
2021/12/04 06:10:57;;;;;;;4.78;2.78;;;10.60;99.90;;;;;;5008908;28;20069;-76
2021/12/04 06:13:25;;;;;;;4.28;2.67;;;10.70;99.90;;;;;;5002858;28;20042;-74
2021/12/04 06:15:53;;;;;;;4.47;2.72;;;10.60;99.90;;;;;;4976307;28;20107;-74
2021/12/04 06:18:21;;;;;;;4.68;3.05;;;10.70;99.90;;;;;;5002882;28;20038;-76
2021/12/04 06:23:33;;;;;;;4.93;2.70;;;10.70;99.90;;;;;;4980983;28;20045;-74
2021/12/04 06:26:01;;;;;;;4.10;2.45;;;10.70;99.90;;;;;;5007533;28;20044;-77
2021/12/04 06:28:28;;;;;;;3.70;2.47;;;10.60;99.90;;;;;;5007533;28;20046;-72
2021/12/04 06:30:59;;;;;;;4.72;2.30;;;10.80;99.90;;;;;;4999613;28;20038;-74
2021/12/04 06:33:25;;;;;;;3.72;2.15;;;10.80;99.90;;;;;;4997633;28;20485;-73
2021/12/04 06:35:52;;;;;;;3.30;2.17;;;10.90;99.90;;;;;;5010681;28;20512;-72
2021/12/04 06:38:20;;;;;;;4.72;2.40;;;10.90;99.90;;;;;;4981770;28;20037;-75
2021/12/04 06:40:48;;;;;;;4.65;2.75;;;10.90;99.90;;;;;;5006772;28;20041;-75
2021/12/04 06:43:15;;;;;;;3.80;2.30;;;10.80;99.90;;;;;;4991032;28;20041;-75
2021/12/04 06:45:45;;;;;;;4.45;2.55;;;10.80;99.90;;;;;;5000937;28;20045;-73
2021/12/04 06:48:23;;;;;;;3.97;2.70;;;10.70;99.90;;;;;;4993221;28;20044;-72
2021/12/04 06:50:56;;;;;;;4.00;2.03;;;10.70;99.90;;;;;;4999065;28;20061;-73
2021/12/04 06:55:53;;;;;;;5.05;2.83;;;10.70;99.90;;;;;;5013771;28;20033;-74
2021/12/04 06:58:22;;;;;;;2.88;2.08;;;10.60;99.90;;;;;;4983694;28;20518;-74
2021/12/04 07:00:50;;;;;;;3.72;2.15;;;10.70;99.90;;;;;;5014810;28;20045;-76
2021/12/04 07:03:17;;;;;;;4.15;2.08;;;10.80;99.90;;;;;;5002444;28;20107;-73
2021/12/04 07:05:44;;;;;;;4.45;2.47;;;10.80;99.90;;;;;;5008603;28;20577;-73
2021/12/04 07:08:10;;;;;;;3.63;2.40;;;10.70;99.90;;;;;;5013834;28;20061;-73
2021/12/04 07:10:37;;;;;;;4.00;2.35;;;10.60;99.90;;;;;;5015576;28;20576;-76
2021/12/04 07:13:04;;;;;;;3.40;2.33;;;10.60;99.90;;;;;;4984170;28;20501;-72
2021/12/04 07:15:31;;;;;;;5.45;2.85;;;10.50;99.90;;;;;;5009136;28;20026;-74
2021/12/04 07:17:59;;;;;;;4.18;1.95;;;10.40;99.90;;;;;;4992681;28;20038;-74
2021/12/04 07:20:27;;;;;;;3.83;2.50;;;10.50;99.90;;;;;;4988383;28;20026;-74
2021/12/04 07:22:54;;;;;;;6.22;2.47;;;10.50;99.90;;;;;;4993682;28;20486;-73
2021/12/04 07:25:20;;;;;;;3.70;2.22;;;10.60;99.90;;;;;;4973324;28;20100;-72
2021/12/04 07:27:50;;;;;;;3.58;2.38;;;10.70;99.90;;;;;;4981475;28;20044;-71
2021/12/04 07:30:19;;;;;;;7.63;2.55;;;10.80;99.90;;;;;;4975698;28;20058;-74
2021/12/04 07:32:46;;;;;;;3.78;2.20;;;10.90;99.90;;;;;;4997143;28;20085;-73
2021/12/04 07:35:15;;;;;;;5.30;2.25;;;10.80;99.90;;;;;;4974899;28;20041;-75
2021/12/04 07:37:42;;;;;;;4.43;2.38;;;10.90;99.90;;;;;;5010821;28;20031;-74
2021/12/04 07:40:08;;;;;;;5.90;2.30;;;10.90;99.90;;;;;;5003357;28;20152;-72
2021/12/04 07:42:35;;;;;;;3.92;2.53;;;10.90;99.90;;;;;;5007453;28;20052;-76
2021/12/04 07:45:01;;;;;;;4.60;2.72;;;10.80;99.90;;;;;;4981463;28;20552;-75
2021/12/04 07:47:27;;;;;;;3.95;2.60;;;10.80;99.90;;;;;;4991644;28;20123;-74
2021/12/04 07:49:53;;;;;;;4.00;2.33;;;10.80;99.90;;;;;;4978239;28;20038;-74
2021/12/04 07:52:20;;;;;;;4.55;2.30;;;10.80;99.90;;;;;;4992801;28;20565;-76
2021/12/04 07:54:48;;;;;;;4.75;2.17;;;10.80;99.90;;;;;;4971964;28;20039;-73
2021/12/04 07:57:15;;;;;;;5.07;2.30;;;10.90;99.90;;;;;;5005011;28;20099;-73
2021/12/04 07:59:42;;;;;;;3.22;2.10;;;11.00;99.90;;;;;;4999967;28;20042;-73
2021/12/04 08:02:09;;;;;;;5.53;2.58;;;11.10;99.90;;;;;;5002311;28;20543;-76
2021/12/04 08:04:36;;;;;;;3.03;2.05;;;11.10;99.90;;;;;;5005538;28;20061;-73
2021/12/04 08:07:04;;;;;;;4.38;2.83;;;11.20;99.90;;;;;;4998813;28;20582;-77
2021/12/04 08:09:30;;;;;;;6.30;2.38;;;11.70;99.90;;;;;;4986709;28;21170;-73
2021/12/04 08:11:57;;;;;;;2.78;1.98;;;11.40;99.90;;;;;;5010316;28;20084;-76
2021/12/04 08:14:23;;;;;;;6.15;4.05;;;11.40;99.90;;;;;;5012396;28;20231;-75
2021/12/04 08:16:48;;;;;;;4.07;3.50;;;12.60;99.90;;;;;;5015089;28;20751;-74
2021/12/04 08:19:16;;;;;;;3.78;2.67;;;13.60;99.90;;;;;;4990816;28;20084;-74
2021/12/04 08:21:42;;;;;;;7.03;2.83;;;14.00;99.90;;;;;;5011969;28;20366;-73
2021/12/04 08:24:09;;;;;;;3.60;2.40;;;14.30;99.90;;;;;;5013354;28;20042;-75
2021/12/04 08:26:38;;;;;;;5.43;2.60;;;14.30;99.90;;;;;;5010927;28;20069;-76
2021/12/04 08:29:05;;;;;;;4.00;2.50;;;14.10;99.90;;;;;;5008772;28;20143;-76
2021/12/04 08:31:33;;;;;;;4.10;2.25;;;15.00;99.90;;;;;;5006090;28;20156;-72
2021/12/04 08:34:02;;;;;;;4.65;3.00;;;14.90;99.90;;;;;;5014998;28;20065;-77
2021/12/04 08:36:32;;;;;;;4.53;2.42;;;14.20;99.90;;;;;;5009467;28;20059;-74
2021/12/04 08:39:04;;;;;;;3.88;2.72;;;14.40;99.90;;;;;;4989501;28;20054;-73
2021/12/04 08:41:30;;;;;;;5.07;2.70;;;14.90;99.90;;;;;;4987589;28;20053;-77
2021/12/04 08:43:56;;;;;;;3.35;2.25;;;14.60;99.90;;;;;;5008335;28;20133;-77
2021/12/04 08:46:23;;;;;;;3.58;1.95;;;13.60;99.90;;;;;;5016311;28;21193;-74
2021/12/04 08:48:54;;;;;;;3.53;2.22;;;13.00;99.90;;;;;;5010667;28;20522;-75
2021/12/04 08:51:22;;;;;;;6.40;3.00;;;12.60;99.90;;;;;;5014481;28;20485;-73
2021/12/04 08:53:51;;;;;;;4.13;2.45;;;12.20;99.90;;;;;;4988385;28;20517;-76
2021/12/04 08:56:17;;;;;;;4.47;2.30;;;12.00;99.90;;;;;;4991865;28;20038;-75
2021/12/04 08:58:44;;;;;;;3.15;2.10;;;12.10;99.90;;;;;;4973537;28;20125;-74
2021/12/04 09:01:16;;;;;;;4.30;2.58;;;12.20;99.90;;;;;;4995897;28;20030;-73
2021/12/04 09:03:46;;;;;;;7.88;2.95;;;12.00;99.90;;;;;;4968302;28;20105;-77
2021/12/04 09:06:18;;;;;;;4.30;2.60;;;12.00;99.90;;;;;;4988626;28;20050;-73
2021/12/04 09:08:44;;;;;;;4.78;2.70;;;12.10;99.90;;;;;;5009627;28;20039;-74
2021/12/04 09:11:19;;;;;;;5.38;2.72;;;12.30;99.90;;;;;;4994186;28;20033;-76
2021/12/04 09:13:47;;;;;;;4.97;2.83;;;12.40;99.90;;;;;;5004407;28;20050;-75
2021/12/04 09:16:15;;;;;;;5.72;2.75;;;12.30;99.90;;;;;;4987994;28;20034;-77
2021/12/04 09:18:42;;;;;;;4.07;2.83;;;12.60;99.90;;;;;;5004861;28;20053;-77
2021/12/04 09:21:10;;;;;;;6.03;2.92;;;12.90;99.90;;;;;;5002502;28;20516;-74
2021/12/04 09:23:48;;;;;;;4.07;2.45;;;13.10;99.90;;;;;;4995096;28;20100;-77
2021/12/04 09:26:30;;;;;;;5.88;2.90;;;13.50;99.90;;;;;;5000447;28;20048;-75
2021/12/04 09:29:42;;;;;;;4.07;2.10;;;13.60;99.90;;;;;;5011830;28;20030;-78
2021/12/04 09:32:11;;;;;;;4.65;2.35;;;13.50;99.90;;;;;;5001582;28;20725;-75
2021/12/04 09:40:33;;;;;;;3.22;1.92;;;13.50;99.90;;;;;;4961858;28;20049;-75
2021/12/04 10:02:25;;;;;;;3.97;2.25;;;15.20;99.90;;;;;;4984529;28;20044;-74
2021/12/04 10:32:23;;;;;;;4.45;1.98;;;15.90;99.90;;;;;;5012645;28;20049;-75
2021/12/04 10:34:55;;;;;;;4.18;2.03;;;16.20;99.90;;;;;;4999365;28;20041;-73
2021/12/04 10:37:24;;;;;;;4.10;2.50;;;16.60;99.90;;;;;;4998195;28;20050;-75
2021/12/04 10:39:53;;;;;;;4.25;2.45;;;16.60;99.90;;;;;;5010189;28;20034;-74
2021/12/04 10:42:25;;;;;;;3.97;2.67;;;16.80;99.90;;;;;;5003805;28;20033;-77
2021/12/04 10:44:54;;;;;;;4.38;2.22;;;16.80;99.90;;;;;;5005100;28;20145;-74
2021/12/04 10:47:26;;;;;;;3.92;2.42;;;17.00;99.90;;;;;;4991735;28;20076;-75
2021/12/04 10:52:58;;;;;;;3.90;2.38;;;17.60;99.70;;;;;;4994068;28;20044;-75
2021/12/04 11:26:52;;;;;;;3.28;1.52;;;18.50;97.70;;;;;;4999433;28;20073;-75
2021/12/04 11:39:53;;;;;;;1.83;0.85;;;18.80;96.60;;;;;;4991428;28;20528;-75
2021/12/04 11:45:08;;;;;;;2.92;0.90;;;19.20;95.90;;;;;;5004779;28;20057;-74
2021/12/04 11:47:35;;;;;;;;;;;19.30;95.60;;;;;;4999634;28;20041;-75
2021/12/04 11:50:01;;;;;;;1.40;0.80;;;20.20;95.10;;;;;;4994090;28;20007;-74
2021/12/04 11:52:29;;;;;;;2.58;1.05;;;20.10;94.50;;;;;;4985389;28;20599;-77
2021/12/04 11:55:00;;;;;;;2.63;1.08;;;20.30;94.10;;;;;;4988877;28;20046;-74
2021/12/04 11:57:32;;;;;;;1.35;0.90;;;21.60;93.50;;;;;;5002947;28;20382;-77
2021/12/04 12:00:23;;;;;;;2.17;1.00;;;20.40;94.20;;;;;;4988645;28;20189;-75
2021/12/04 12:02:51;;;;;;;3.28;1.13;;;20.70;94.20;;;;;;4999517;28;20114;-74
2021/12/04 12:05:21;;;;;;;1.65;0.90;;;20.90;93.60;;;;;;5015348;28;20042;-75
2021/12/04 12:07:57;;;;;;;2.60;0.95;;;22.00;93.00;;;;;;5013668;28;20081;-74
2021/12/04 12:10:26;;;;;;;2.58;0.85;;;21.60;92.30;;;;;;5014544;28;20037;-77
2021/12/04 12:13:05;;;;;;;0.75;0.70;;;20.90;92.60;;;;;;5010176;28;20053;-78
2021/12/04 12:15:35;;;;;;;1.00;0.80;;;20.90;92.80;;;;;;4975042;28;20091;-75
2021/12/04 12:18:17;;;;;;;2.40;0.77;;;21.50;93.00;;;;;;5009319;28;20038;-74
2021/12/04 12:20:49;;;;;;;5.30;0.90;;;21.00;92.80;;;;;;5021908;28;20252;-75
2021/12/04 12:23:19;;;;;;;;;;;19.90;93.00;;;;;;4991074;28;20844;-78
2021/12/04 12:31:58;;;;;;;2.17;0.90;;;21.00;92.60;;;;;;5011828;28;20072;-76
2021/12/04 12:37:26;;;;;;;3.88;1.20;;;20.60;92.80;;;;;;5012381;28;20409;-74
2021/12/04 12:39:59;;;;;;;2.00;1.10;;;21.10;92.40;;;;;;4985116;28;20042;-77
2021/12/04 12:42:35;;;;;;;2.55;1.10;;;20.60;92.40;;;;;;5000847;28;20037;-78
2021/12/04 12:45:29;;;;;;;2.13;0.80;;;21.20;92.30;;;;;;4991496;28;20038;-75
2021/12/04 12:48:02;;;;;;;7.15;1.02;;;21.80;91.70;;;;;;5005455;28;20046;-74
2021/12/04 12:50:37;;;;;;;1.33;0.98;;;21.50;91.70;;;;;;4988896;28;20128;-73
2021/12/04 12:53:26;;;;;;;1.60;0.93;;;20.70;92.20;;;;;;4987653;28;20810;-76
2021/12/04 12:56:08;;;;;;;1.48;1.10;;;18.80;93.60;;;;;;5007303;28;20054;-74
2021/12/04 12:58:44;;;;;;;3.53;1.27;;;17.80;95.00;;;;;;4989558;28;20039;-74
2021/12/04 13:12:50;;;;;;;5.35;1.52;;;18.10;95.20;;;;;;4963691;28;20057;-74
2021/12/04 13:15:35;;;;;;;4.82;1.50;;;17.40;96.40;;;;;;4969080;28;20046;-74
2021/12/04 13:18:17;;;;;;;2.85;1.80;;;16.80;96.90;;;;;;4980744;28;20066;-77
2021/12/04 13:20:44;;;;;;;3.38;1.60;;;16.60;97.30;;;;;;4989143;28;20063;-74
2021/12/04 13:23:13;;;;;;;8.43;2.10;;;16.30;97.70;;;;;;4993024;28;20128;-78
2021/12/04 13:25:48;;;;;;;5.80;1.95;;;16.30;98.10;;;;;;4995371;28;20042;-77
2021/12/04 13:28:20;;;;;;;3.22;2.00;;;16.10;98.10;;;;;;4976687;28;20056;-75
2021/12/04 13:30:46;;;;;;;4.43;2.05;;;15.90;98.50;;;;;;5006299;28;20481;-75
2021/12/04 13:33:14;;;;;;;4.70;1.85;;;15.70;98.70;;;;;;4992138;28;20038;-74
2021/12/04 13:35:45;;;;;;;6.35;1.90;;;15.70;99.10;;;;;;5012152;28;20183;-75
2021/12/04 13:38:13;;;;;;;3.47;1.65;;;15.70;99.20;;;;;;5011292;28;20156;-77
2021/12/04 13:40:40;;;;;;;5.63;2.15;;;15.80;99.10;;;;;;5011636;28;20369;-75
2021/12/04 13:43:13;;;;;;;4.15;2.15;;;15.70;99.20;;;;;;5011300;28;20041;-73
2021/12/04 13:45:41;;;;;;;3.97;2.20;;;15.50;99.40;;;;;;5010835;28;20117;-75
2021/12/04 13:48:08;;;;;;;3.55;2.00;;;15.50;99.70;;;;;;4973942;28;20042;-78
2021/12/04 13:53:07;;;;;;;4.32;2.17;;;15.30;99.90;;;;;;4996059;28;20472;-74
2021/12/04 13:55:43;;;;;;;5.53;2.42;;;15.30;99.90;;;;;;5016858;28;20131;-76
2021/12/04 13:58:09;;;;;;;4.20;2.15;;;15.20;99.90;;;;;;5001026;28;20093;-76
2021/12/04 14:00:36;;;;;;;4.47;2.15;;;15.20;99.90;;;;;;5009503;28;20026;-74
2021/12/04 14:03:04;;;;;;;5.68;2.45;;;15.10;99.90;;;;;;4998981;28;20041;-77
2021/12/04 14:05:30;;;;;;;8.30;2.67;;;15.10;99.90;;;;;;5004236;28;20121;-76
2021/12/04 14:07:59;;;;;;;4.25;2.22;;;15.10;99.90;;;;;;5018433;28;20513;-78
2021/12/04 14:10:37;;;;;;;2.70;2.08;;;15.00;99.90;;;;;;4979194;28;20433;-77
2021/12/04 14:13:05;;;;;;;6.68;2.20;;;14.90;99.90;;;;;;4981919;28;20042;-74
2021/12/04 14:15:33;;;;;;;3.83;1.85;;;14.90;99.90;;;;;;4990645;28;20049;-73
2021/12/04 14:18:12;;;;;;;5.10;1.83;;;14.80;99.90;;;;;;5009644;28;20116;-76
2021/12/04 14:20:40;;;;;;;3.88;1.85;;;14.80;99.90;;;;;;5011348;28;20049;-77
2021/12/04 14:23:08;;;;;;;3.03;1.70;;;14.80;99.90;;;;;;4994748;28;20385;-75
2021/12/04 14:25:42;;;;;;;2.65;1.92;;;14.70;99.90;;;;;;5002121;28;20042;-76
2021/12/04 14:28:13;;;;;;;4.07;2.08;;;14.70;99.90;;;;;;5001912;28;20053;-76
2021/12/04 14:30:44;;;;;;;2.88;1.90;;;14.70;99.90;;;;;;4979221;28;20117;-76
2021/12/04 14:33:15;;;;;;;5.72;1.80;;;14.60;99.90;;;;;;4982160;28;20398;-74
2021/12/04 14:35:45;;;;;;;2.83;1.90;;;14.60;99.90;;;;;;4991961;28;20038;-77
2021/12/04 14:38:15;;;;;;;3.75;1.98;;;14.60;99.90;;;;;;5020291;28;20040;-76
2021/12/04 14:40:42;;;;;;;5.70;1.60;;;14.60;99.90;;;;;;4991893;28;20102;-75
2021/12/04 14:43:21;;;;;;;3.38;1.55;;;14.60;99.90;;;;;;5013000;28;20049;-77
2021/12/04 14:45:52;;;;;;;3.33;1.80;;;14.50;99.90;;;;;;4981489;28;20868;-77
2021/12/04 14:48:39;;;;;;;3.47;1.88;;;14.50;99.90;;;;;;4987764;28;20073;-75
2021/12/04 14:51:14;;;;;;;5.93;1.77;;;14.40;99.90;;;;;;5018316;28;20061;-76
2021/12/04 14:53:55;;;;;;;2.50;1.50;;;14.40;99.90;;;;;;4986635;28;20045;-77
2021/12/04 14:56:25;;;;;;;4.43;1.50;;;14.50;99.90;;;;;;4987538;28;20436;-76
2021/12/04 14:58:52;;;;;;;2.80;1.60;;;14.40;99.90;;;;;;4992059;28;20074;-76
2021/12/04 15:01:20;;;;;;;3.63;1.25;;;14.40;99.90;;;;;;5019671;28;20035;-75
2021/12/04 15:03:55;;;;;;;2.13;1.40;;;14.30;99.90;;;;;;4988497;28;20038;-76
2021/12/04 15:06:22;;;;;;;1.83;1.40;;;14.30;99.90;;;;;;4993010;28;20078;-74
2021/12/04 15:09:00;;;;;;;4.43;1.52;;;14.30;99.90;;;;;;4991461;28;20125;-77
2021/12/04 15:11:31;;;;;;;2.88;1.50;;;14.30;99.90;;;;;;4992248;28;20130;-76
2021/12/04 15:14:19;;;;;;;2.50;1.70;;;14.30;99.90;;;;;;4994577;28;20117;-73
2021/12/04 15:16:50;;;;;;;3.05;1.95;;;14.30;99.90;;;;;;5001908;28;20222;-73
2021/12/04 15:19:22;;;;;;;3.67;1.80;;;14.40;99.90;;;;;;4997609;28;20038;-75
2021/12/04 15:21:57;;;;;;;2.95;1.83;;;14.40;99.90;;;;;;4988087;28;20385;-78
2021/12/04 15:24:29;;;;;;;3.03;2.00;;;14.40;99.90;;;;;;5003532;28;20046;-75
2021/12/04 15:27:01;;;;;;;4.87;2.80;;;14.40;99.90;;;;;;5005354;28;20074;-78
2021/12/04 15:29:31;;;;;;;3.83;2.30;;;14.30;99.90;;;;;;5004866;28;20067;-73
2021/12/04 15:32:00;;;;;;;3.55;1.80;;;14.30;99.90;;;;;;4984477;28;20915;-75
2021/12/04 15:34:50;;;;;;;2.65;1.45;;;14.30;99.90;;;;;;5007969;28;20115;-77
2021/12/04 15:37:26;;;;;;;3.22;1.45;;;14.30;99.90;;;;;;5000577;28;20041;-73
2021/12/04 15:39:53;;;;;;;2.30;1.33;;;14.30;99.90;;;;;;4991415;28;20053;-78
2021/12/04 15:45:41;;;;;;;2.97;1.30;;;14.30;99.90;;;;;;5008348;28;20060;-74
2021/12/04 15:48:04;;;;;;;2.38;1.48;;;14.30;99.90;;;;;;4998220;28;20190;-75
2021/12/04 15:53:14;;;;;;;2.33;1.02;;;14.20;99.90;;;;;;5009787;28;20103;-76
2021/12/04 15:55:49;;;;;;;1.92;1.20;;;14.30;99.90;;;;;;5016031;28;20509;-75
2021/12/04 15:58:21;;;;;;;3.92;1.40;;;14.20;99.90;;;;;;4995649;28;20520;-74
2021/12/04 16:00:54;;;;;;;2.50;1.10;;;14.20;99.90;;;;;;5014268;28;20447;-76
2021/12/04 16:03:26;;;;;;;5.38;1.20;;;14.20;99.90;;;;;;4995627;28;20352;-76
2021/12/04 16:05:55;;;;;;;3.35;1.60;;;14.20;99.90;;;;;;5013952;28;20129;-74
2021/12/04 16:08:27;;;;;;;2.95;1.20;;;14.20;99.90;;;;;;5003981;28;20477;-75
2021/12/04 16:10:56;;;;;;;2.15;1.17;;;14.20;99.90;;;;;;5007839;28;20045;-76
2021/12/04 16:13:30;;;;;;;1.60;1.00;;;14.20;99.90;;;;;;4996819;28;20050;-75
2021/12/04 16:15:58;;;;;;;2.22;1.13;;;14.20;99.90;;;;;;4997483;28;20034;-76